Terminal Aerodrome Forecast
Issued by NWS

Current Version | Previous Version | Text Only | Print | Product List | Glossary On
Versions: 1 2 3 4 5 6 7 8 9 10 11 12 13 14
000
FTUS42 KMHX 231700
TAFISO
TAF
KISO 231722Z 2318/2418 31008KT P6SM SKC
     FM232100 30004KT P6SM SKC
     FM241400 34005KT P6SM SKC=

USA.gov is the U.S. government's official web portal to all federal, state and local government web resources and services.